Time;durP1;ratioP1;P1;durP2;ratioP2;P2;SDS_P1;SDS_P2;PMS_P1;PMS_P2;Temp;Humidity;BMP_temperature;BMP_pressure;BME280_temperature;BME280_humidity;BME280_pressure;Samples;Min_cycle;Max_cycle;Signal;HPM_P1;HPM_P2
2022/06/13 00:00:54;;;;;;;7.05;4.75;;;19.80;99.90;;;;;;4963252;29;20042;-80
2022/06/13 00:03:20;;;;;;;12.27;6.15;;;19.80;99.90;;;;;;4961120;29;20042;-81
2022/06/13 00:05:46;;;;;;;14.57;6.72;;;19.70;99.90;;;;;;4963244;28;20019;-82
2022/06/13 00:08:12;;;;;;;12.88;6.97;;;19.70;99.90;;;;;;4959642;29;20031;-79
2022/06/13 00:10:38;;;;;;;14.20;6.65;;;19.60;99.90;;;;;;4958782;29;20059;-81
2022/06/13 00:13:05;;;;;;;11.50;6.90;;;19.50;99.90;;;;;;4959325;29;20064;-80
2022/06/13 00:15:31;;;;;;;10.25;7.07;;;19.50;99.90;;;;;;4957055;29;20027;-81
2022/06/13 00:17:57;;;;;;;11.60;7.03;;;19.40;99.90;;;;;;4957236;29;20039;-79
2022/06/13 00:20:22;;;;;;;16.42;8.57;;;19.30;99.90;;;;;;4957651;29;20035;-79
2022/06/13 00:22:48;;;;;;;25.67;9.70;;;19.30;99.90;;;;;;4956292;29;20123;-80
2022/06/13 00:25:16;;;;;;;12.07;7.35;;;19.20;99.90;;;;;;4957766;29;20023;-80
2022/06/13 00:27:42;;;;;;;15.88;7.78;;;19.20;99.90;;;;;;4943619;29;20504;-78
2022/06/13 00:30:09;;;;;;;18.55;7.07;;;19.10;99.90;;;;;;4959685;28;20082;-81
2022/06/13 00:32:35;;;;;;;14.65;6.20;;;19.10;99.90;;;;;;4959225;29;20035;-81
2022/06/13 00:35:02;;;;;;;9.18;6.22;;;19.10;99.90;;;;;;4961171;29;20418;-81
2022/06/13 00:37:28;;;;;;;10.45;5.88;;;19.00;99.90;;;;;;4956871;29;20090;-81
2022/06/13 00:39:54;;;;;;;10.75;6.63;;;19.00;99.90;;;;;;4958081;28;20057;-81
2022/06/13 00:42:22;;;;;;;11.82;6.47;;;18.90;99.90;;;;;;4958558;28;20039;-81
2022/06/13 00:45:25;;;;;;;12.10;6.47;;;18.90;99.90;;;;;;4961972;28;20027;-81
2022/06/13 00:47:53;;;;;;;11.82;7.50;;;18.80;99.90;;;;;;4884381;29;20075;-79
2022/06/13 00:50:31;;;;;;;13.60;7.65;;;18.80;99.90;;;;;;4957177;28;20024;-79
2022/06/13 00:53:09;;;;;;;12.85;7.70;;;18.80;99.90;;;;;;4976616;28;20083;-80
2022/06/13 00:55:40;;;;;;;10.93;7.55;;;18.70;99.90;;;;;;4972630;28;20113;-80
2022/06/13 00:58:07;;;;;;;12.30;7.80;;;18.70;99.90;;;;;;4970754;28;20027;-78
2022/06/13 01:00:35;;;;;;;16.17;9.68;;;18.60;99.90;;;;;;4977281;28;20034;-80
2022/06/13 01:03:03;;;;;;;14.50;8.57;;;18.60;99.90;;;;;;4974729;29;20027;-81
2022/06/13 01:05:41;;;;;;;12.55;7.40;;;18.50;99.90;;;;;;4961988;28;20027;-81
2022/06/13 01:08:09;;;;;;;11.18;7.47;;;18.50;99.90;;;;;;4961192;29;20428;-78
2022/06/13 01:13:49;;;;;;;13.82;7.40;;;18.50;99.90;;;;;;4961478;29;20027;-80
2022/06/13 01:16:34;;;;;;;10.02;7.53;;;18.40;99.90;;;;;;4965561;29;20039;-79
2022/06/13 01:19:29;;;;;;;10.40;7.55;;;18.40;99.90;;;;;;4960462;28;20622;-81
2022/06/13 01:21:58;;;;;;;15.43;7.30;;;18.30;99.90;;;;;;4881933;28;20077;-79
2022/06/13 01:24:26;;;;;;;9.80;6.82;;;18.30;99.90;;;;;;4969795;29;20034;-78
2022/06/13 01:26:58;;;;;;;10.15;7.10;;;18.30;99.90;;;;;;4969625;29;20039;-78
2022/06/13 01:30:09;;;;;;;10.85;7.45;;;18.20;99.90;;;;;;4970369;28;20055;-78
2022/06/13 01:33:02;;;;;;;12.15;8.02;;;18.10;99.90;;;;;;4971953;29;20031;-80
2022/06/13 01:35:33;;;;;;;13.23;7.65;;;18.10;99.90;;;;;;4960925;29;20094;-81
2022/06/13 01:38:34;;;;;;;9.70;7.28;;;18.00;99.90;;;;;;4962953;29;20031;-79
2022/06/13 01:41:12;;;;;;;12.80;7.55;;;18.00;99.90;;;;;;4962231;29;20035;-80
2022/06/13 01:43:58;;;;;;;12.25;7.10;;;17.90;99.90;;;;;;4962848;29;20034;-81
2022/06/13 01:46:47;;;;;;;9.38;7.18;;;17.90;99.90;;;;;;4959960;29;20023;-82
2022/06/13 01:49:37;;;;;;;10.73;7.20;;;17.90;99.90;;;;;;4963217;29;20049;-79
2022/06/13 01:52:35;;;;;;;11.05;7.00;;;17.90;99.90;;;;;;4961733;29;20118;-80
2022/06/13 01:55:16;;;;;;;13.32;7.88;;;17.80;99.90;;;;;;4959924;28;20043;-81
2022/06/13 01:58:07;;;;;;;10.88;6.88;;;17.90;99.90;;;;;;4962054;28;20035;-81
2022/06/13 02:00:35;;;;;;;11.90;7.53;;;17.90;99.90;;;;;;4967771;28;20087;-77
2022/06/13 02:03:15;;;;;;;11.55;7.40;;;17.90;99.90;;;;;;4972019;29;20107;-79
2022/06/13 02:05:56;;;;;;;15.32;7.95;;;17.90;99.90;;;;;;4969359;29;20027;-79
2022/06/13 02:08:33;;;;;;;15.13;7.82;;;17.80;99.90;;;;;;4969340;29;20105;-79
2022/06/13 02:11:30;;;;;;;31.35;15.85;;;17.80;99.90;;;;;;4972204;28;20059;-80
2022/06/13 02:14:41;;;;;;;23.27;12.18;;;17.70;99.90;;;;;;4962031;29;20448;-79
2022/06/13 02:17:13;;;;;;;17.35;10.38;;;17.70;99.90;;;;;;4962872;29;20027;-80
2022/06/13 02:19:51;;;;;;;26.90;14.07;;;17.70;99.90;;;;;;4963507;29;20091;-78
2022/06/13 02:22:40;;;;;;;34.50;16.35;;;17.60;99.90;;;;;;4964122;29;20095;-81
2022/06/13 02:25:10;;;;;;;27.67;15.85;;;17.60;99.90;;;;;;4962829;29;20047;-78
2022/06/13 02:27:38;;;;;;;23.63;12.48;;;17.60;99.90;;;;;;4962411;28;20472;-78
2022/06/13 02:30:08;;;;;;;22.60;12.15;;;17.50;99.90;;;;;;4963164;28;20023;-82
2022/06/13 02:32:58;;;;;;;21.95;9.82;;;17.50;99.90;;;;;;4965033;28;20034;-80
2022/06/13 02:35:48;;;;;;;17.33;9.10;;;17.60;99.90;;;;;;4963994;28;20035;-79
2022/06/13 02:38:32;;;;;;;17.33;9.35;;;17.50;99.90;;;;;;4964230;29;20471;-81
2022/06/13 02:41:03;;;;;;;16.92;8.48;;;17.50;99.90;;;;;;4963416;29;20043;-81
2022/06/13 02:43:39;;;;;;;13.15;8.90;;;17.50;99.90;;;;;;4962489;29;20388;-81
2022/06/13 02:46:15;;;;;;;13.82;8.40;;;17.50;99.90;;;;;;4960510;29;20423;-80
2022/06/13 02:48:52;;;;;;;11.38;8.13;;;17.50;99.90;;;;;;4960299;29;20031;-81
2022/06/13 02:51:24;;;;;;;18.50;8.10;;;17.50;99.90;;;;;;4964182;28;20127;-80
2022/06/13 02:54:00;;;;;;;16.05;8.23;;;17.50;99.90;;;;;;4979269;23;20054;-79
2022/06/13 02:59:47;;;;;;;10.95;8.10;;;17.40;99.90;;;;;;4967546;29;20057;-81
2022/06/13 03:02:18;;;;;;;12.23;7.95;;;17.40;99.90;;;;;;4966639;29;20042;-81
2022/06/13 03:04:55;;;;;;;12.18;7.35;;;17.40;99.90;;;;;;4964089;28;20039;-81
2022/06/13 03:07:33;;;;;;;11.07;7.75;;;17.40;99.90;;;;;;4964523;28;20035;-79
2022/06/13 03:10:15;;;;;;;13.15;8.50;;;17.40;99.90;;;;;;4963176;29;20035;-80
2022/06/13 03:12:47;;;;;;;15.35;9.60;;;17.40;99.90;;;;;;4964381;28;20027;-80
2022/06/13 03:15:38;;;;;;;15.32;8.90;;;17.40;99.90;;;;;;4965134;29;20078;-80
2022/06/13 03:18:15;;;;;;;15.45;8.40;;;17.30;99.90;;;;;;4963362;28;20105;-81
2022/06/13 03:20:48;;;;;;;15.50;8.02;;;17.30;99.90;;;;;;4966085;29;20027;-77
2022/06/13 03:23:17;;;;;;;12.25;7.85;;;17.30;99.90;;;;;;4974115;28;20055;-80
2022/06/13 03:25:55;;;;;;;18.90;9.43;;;17.40;99.90;;;;;;4971354;29;20032;-79
2022/06/13 03:28:43;;;;;;;14.13;9.15;;;17.30;99.90;;;;;;4970638;28;20096;-79
2022/06/13 03:31:33;;;;;;;17.92;9.35;;;17.40;99.90;;;;;;4963572;28;20078;-80
2022/06/13 03:34:05;;;;;;;16.58;9.30;;;17.40;99.90;;;;;;4962980;29;20043;-79
2022/06/13 03:36:37;;;;;;;19.88;9.75;;;17.30;99.90;;;;;;4963600;29;20059;-80
2022/06/13 03:39:10;;;;;;;18.85;11.00;;;17.30;99.90;;;;;;4962125;28;20058;-80
2022/06/13 03:41:43;;;;;;;19.27;10.48;;;17.30;99.90;;;;;;4963179;28;20046;-80
2022/06/13 03:44:25;;;;;;;14.82;10.50;;;17.30;99.90;;;;;;4970552;28;20066;-79
2022/06/13 03:46:55;;;;;;;17.85;10.73;;;17.30;99.90;;;;;;4971359;29;20117;-80
2022/06/13 03:49:42;;;;;;;21.83;11.38;;;17.40;99.90;;;;;;4973672;29;20087;-79
2022/06/13 03:52:11;;;;;;;18.60;10.57;;;17.40;99.90;;;;;;4971406;28;20039;-79
2022/06/13 03:55:01;;;;;;;17.63;10.10;;;17.50;99.90;;;;;;4970034;28;20067;-80
2022/06/13 03:57:47;;;;;;;13.68;10.13;;;17.70;99.90;;;;;;4971884;29;20042;-79
2022/06/13 04:00:25;;;;;;;15.20;11.00;;;17.80;99.90;;;;;;4972848;29;20503;-79
2022/06/13 04:02:53;;;;;;;20.73;11.65;;;17.80;99.90;;;;;;4972339;28;20035;-80
2022/06/13 04:05:38;;;;;;;13.30;8.85;;;17.80;99.90;;;;;;4969233;29;20042;-79
2022/06/13 04:08:06;;;;;;;13.73;9.27;;;17.90;99.90;;;;;;4972439;29;20051;-82
2022/06/13 04:11:02;;;;;;;18.92;11.00;;;18.20;99.90;;;;;;4973303;28;20015;-80
2022/06/13 04:13:43;;;;;;;20.23;9.63;;;18.20;99.90;;;;;;4970155;29;20042;-80
2022/06/13 04:16:36;;;;;;;14.70;9.93;;;18.40;99.90;;;;;;4972784;28;20011;-79
2022/06/13 04:19:27;;;;;;;15.00;9.40;;;18.60;99.90;;;;;;4975946;29;20046;-79
2022/06/13 04:22:10;;;;;;;16.13;9.70;;;18.60;99.90;;;;;;4976100;29;20023;-79
2022/06/13 04:25:25;;;;;;;13.25;9.77;;;18.60;99.90;;;;;;4971836;29;20058;-81
2022/06/13 04:27:59;;;;;;;13.98;10.05;;;18.70;99.90;;;;;;4964379;28;20079;-85
2022/06/13 04:30:28;;;;;;;13.75;9.55;;;18.60;99.90;;;;;;4982175;28;20035;-83
2022/06/13 04:33:24;;;;;;;15.57;8.63;;;18.60;99.90;;;;;;4981361;28;20081;-85
2022/06/13 04:35:50;;;;;;;17.50;9.43;;;18.60;99.90;;;;;;4981103;28;20031;-83
2022/06/13 04:38:19;;;;;;;12.63;9.15;;;18.60;99.90;;;;;;4981218;28;20031;-85
2022/06/13 04:40:49;;;;;;;12.68;9.50;;;18.70;99.90;;;;;;4974978;28;20514;-85
2022/06/13 04:43:18;;;;;;;16.75;10.95;;;18.80;99.90;;;;;;4981485;28;20053;-84
2022/06/13 04:45:55;;;;;;;15.50;10.68;;;18.80;99.90;;;;;;4981738;28;20092;-83
2022/06/13 04:48:22;;;;;;;15.73;10.13;;;18.90;99.90;;;;;;4980305;28;20055;-86
2022/06/13 04:50:57;;;;;;;20.40;10.77;;;19.00;99.90;;;;;;4978601;28;20023;-85
2022/06/13 04:53:29;;;;;;;17.23;9.95;;;19.10;99.90;;;;;;4977858;29;20038;-87
2022/06/13 04:55:55;;;;;;;13.80;9.77;;;19.30;99.90;;;;;;4979796;28;20027;-85
2022/06/13 04:58:31;;;;;;;14.73;10.10;;;19.40;99.90;;;;;;4978054;29;20034;-85
2022/06/13 05:01:09;;;;;;;18.13;11.02;;;19.60;99.90;;;;;;4977927;28;20035;-86
2022/06/13 05:03:38;;;;;;;16.35;11.40;;;19.70;99.90;;;;;;4978481;28;20027;-86
2022/06/13 05:06:06;;;;;;;20.15;11.10;;;19.70;99.90;;;;;;4978751;28;20051;-86
2022/06/13 05:08:36;;;;;;;17.35;9.57;;;19.70;99.90;;;;;;4973642;29;20090;-86
2022/06/13 05:11:22;;;;;;;14.88;8.90;;;19.70;99.90;;;;;;4966718;28;20019;-85
2022/06/13 05:13:53;;;;;;;17.15;7.97;;;19.80;99.90;;;;;;4965375;28;20058;-88
2022/06/13 05:16:34;;;;;;;11.00;5.13;;;19.90;99.90;;;;;;4969508;29;20032;-86
2022/06/13 05:19:24;;;;;;;12.82;5.50;;;19.90;99.90;;;;;;4972747;29;20054;-88
2022/06/13 05:21:53;;;;;;;7.85;4.95;;;19.80;99.90;;;;;;4969194;29;20039;-85
2022/06/13 05:24:36;;;;;;;10.27;7.13;;;19.70;99.90;;;;;;4970371;28;20031;-86
2022/06/13 05:27:06;;;;;;;10.05;5.85;;;19.60;99.90;;;;;;4972102;28;20074;-88
2022/06/13 05:29:33;;;;;;;12.75;6.10;;;19.50;99.90;;;;;;4969889;28;20126;-89
2022/06/13 05:32:00;;;;;;;9.93;4.85;;;19.30;99.90;;;;;;4972850;29;20090;-88
2022/06/13 05:34:32;;;;;;;11.25;4.00;;;19.30;99.90;;;;;;4975658;28;20039;-87
2022/06/13 05:36:59;;;;;;;12.18;3.75;;;19.30;99.90;;;;;;4975698;28;20038;-86
2022/06/13 05:39:24;;;;;;;12.90;4.47;;;19.40;99.90;;;;;;4976831;28;20027;-87
2022/06/13 05:41:51;;;;;;;11.88;3.80;;;19.50;99.90;;;;;;4974515;29;20091;-85
2022/06/13 05:44:17;;;;;;;12.23;4.18;;;19.50;99.90;;;;;;4973064;29;20030;-85
2022/06/13 05:46:45;;;;;;;9.82;3.72;;;19.70;99.90;;;;;;4975703;29;20016;-86
2022/06/13 05:49:12;;;;;;;13.10;4.13;;;19.80;99.90;;;;;;4977537;28;20027;-86
2022/06/13 05:51:38;;;;;;;10.32;4.63;;;19.90;99.90;;;;;;4957037;28;20011;-86
2022/06/13 05:54:04;;;;;;;12.02;3.60;;;20.00;99.90;;;;;;4969516;28;20074;-89
2022/06/13 05:56:31;;;;;;;9.50;3.60;;;20.20;99.90;;;;;;4974346;28;20022;-86
2022/06/13 05:58:57;;;;;;;12.98;2.42;;;20.60;99.90;;;;;;4969034;28;20009;-87
2022/06/13 06:01:23;;;;;;;4.75;2.53;;;20.90;99.90;;;;;;4966449;29;20393;-89
2022/06/13 06:03:49;;;;;;;6.50;2.85;;;21.20;99.90;;;;;;4966007;29;20027;-88
2022/06/13 06:06:24;;;;;;;10.00;3.28;;;21.60;99.90;;;;;;4968261;28;20094;-87
2022/06/13 06:08:51;;;;;;;10.27;2.40;;;21.90;99.90;;;;;;4966204;29;20042;-87
2022/06/13 06:11:17;;;;;;;4.90;2.65;;;22.20;99.90;;;;;;4967433;28;20057;-82
2022/06/13 06:13:43;;;;;;;5.82;2.67;;;22.30;99.90;;;;;;4966290;28;20023;-80
2022/06/13 06:16:14;;;;;;;8.30;2.60;;;22.40;99.90;;;;;;4972150;28;20038;-81
2022/06/13 06:18:40;;;;;;;6.90;2.50;;;22.30;99.90;;;;;;4970420;29;20046;-82
2022/06/13 06:21:05;;;;;;;4.55;2.13;;;22.20;99.90;;;;;;4974877;28;20050;-82
2022/06/13 06:23:31;;;;;;;6.43;2.42;;;22.10;99.90;;;;;;4974259;28;20027;-81
2022/06/13 06:25:58;;;;;;;4.90;2.58;;;22.10;99.90;;;;;;4970281;29;20026;-81
2022/06/13 06:28:26;;;;;;;4.63;2.22;;;22.10;99.90;;;;;;4973326;28;20083;-80
2022/06/13 06:30:54;;;;;;;3.08;2.50;;;22.00;99.90;;;;;;4971439;28;20411;-81
2022/06/13 06:33:23;;;;;;;8.60;2.60;;;22.00;99.90;;;;;;4964718;29;20035;-82
2022/06/13 06:35:51;;;;;;;3.65;2.30;;;22.00;99.90;;;;;;4966600;28;20030;-81
2022/06/13 06:38:17;;;;;;;3.15;2.17;;;22.10;99.90;;;;;;4962038;29;20125;-80
2022/06/13 06:40:43;;;;;;;4.55;2.85;;;22.10;99.90;;;;;;4963953;28;20427;-80
2022/06/13 06:43:09;;;;;;;8.10;2.72;;;22.10;99.90;;;;;;4968104;29;20089;-80
2022/06/13 06:45:36;;;;;;;7.80;2.80;;;21.90;99.90;;;;;;4967067;29;20024;-81
2022/06/13 06:48:02;;;;;;;4.60;2.58;;;21.80;99.90;;;;;;4967291;29;20058;-82
2022/06/13 06:50:32;;;;;;;7.18;3.20;;;21.70;99.90;;;;;;4969938;28;20083;-81
2022/06/13 06:52:58;;;;;;;5.70;2.88;;;21.60;99.90;;;;;;4967202;29;20031;-82
2022/06/13 07:01:00;;;;;;;8.20;3.30;;;21.00;99.90;;;;;;4965563;29;20035;-81
2022/06/13 07:03:26;;;;;;;4.13;2.92;;;20.90;99.90;;;;;;4971323;28;20023;-79
2022/06/13 07:05:52;;;;;;;4.53;3.13;;;20.70;99.90;;;;;;4969301;29;20035;-82
2022/06/13 07:08:18;;;;;;;8.30;3.55;;;20.70;99.90;;;;;;4970739;28;20035;-80
2022/06/13 07:10:49;;;;;;;9.63;3.50;;;20.70;99.90;;;;;;4975083;29;20081;-80
2022/06/13 07:13:16;;;;;;;6.75;3.55;;;20.70;99.90;;;;;;4973647;29;20038;-83
2022/06/13 07:15:42;;;;;;;9.25;3.58;;;20.80;99.90;;;;;;4967329;28;20034;-81
2022/06/13 07:18:08;;;;;;;9.50;4.03;;;20.90;99.90;;;;;;4965094;29;20046;-83
2022/06/13 07:20:35;;;;;;;8.05;3.75;;;21.10;99.90;;;;;;4966642;28;20094;-82
2022/06/13 07:23:02;;;;;;;5.80;3.10;;;21.10;99.90;;;;;;4949011;29;20082;-80
2022/06/13 07:25:30;;;;;;;5.63;3.25;;;21.10;99.90;;;;;;4965941;29;20015;-82
2022/06/13 07:27:57;;;;;;;8.95;4.03;;;21.20;99.90;;;;;;4968271;29;20035;-81
2022/06/13 07:30:26;;;;;;;8.35;3.72;;;21.20;99.90;;;;;;4968826;28;20027;-82
2022/06/13 07:32:53;;;;;;;6.53;3.83;;;21.20;99.90;;;;;;4968579;29;20031;-80
2022/06/13 07:35:21;;;;;;;9.85;3.72;;;21.30;99.90;;;;;;4967391;29;20023;-82
2022/06/13 07:40:32;;;;;;;17.35;4.25;;;21.10;99.90;;;;;;4968835;29;20108;-81
2022/06/13 07:43:03;;;;;;;9.15;3.20;;;21.20;99.90;;;;;;4972507;29;20035;-80
2022/06/13 07:45:33;;;;;;;12.07;3.67;;;21.40;99.90;;;;;;4972612;28;20027;-84
2022/06/13 07:47:59;;;;;;;10.93;3.95;;;21.70;99.90;;;;;;4966520;29;20027;-80
2022/06/13 07:50:26;;;;;;;9.38;3.53;;;21.80;99.90;;;;;;4965799;28;20031;-83
2022/06/13 07:52:53;;;;;;;7.53;3.42;;;21.80;99.90;;;;;;4965895;28;20031;-80
2022/06/13 07:55:21;;;;;;;9.57;3.28;;;21.80;99.90;;;;;;4968423;28;20047;-83
2022/06/13 07:57:47;;;;;;;7.03;3.58;;;22.10;99.90;;;;;;4969526;29;20046;-81
2022/06/13 08:00:26;;;;;;;9.23;3.95;;;22.50;99.90;;;;;;4966771;29;20125;-81
2022/06/13 08:02:56;;;;;;;8.57;3.17;;;22.90;99.90;;;;;;4967590;28;20059;-82
2022/06/13 08:05:22;;;;;;;7.38;3.40;;;23.20;99.90;;;;;;4971764;28;20099;-82
2022/06/13 08:07:47;;;;;;;7.22;2.65;;;23.20;99.90;;;;;;4973596;28;20024;-81
2022/06/13 08:10:15;;;;;;;10.98;2.83;;;23.20;99.90;;;;;;4974014;29;20031;-81
2022/06/13 08:12:43;;;;;;;4.53;2.95;;;23.10;99.90;;;;;;4972386;29;20083;-81
2022/06/13 08:15:10;;;;;;;5.72;3.08;;;23.20;99.90;;;;;;4974296;29;20031;-81
2022/06/13 08:17:35;;;;;;;8.38;3.28;;;23.40;99.90;;;;;;4974868;28;20054;-82
2022/06/13 08:20:01;;;;;;;12.65;2.97;;;23.60;99.90;;;;;;4974225;28;20020;-81
2022/06/13 08:22:27;;;;;;;4.00;2.92;;;23.40;99.90;;;;;;4974272;29;20037;-81
2022/06/13 08:24:53;;;;;;;3.92;2.88;;;23.10;99.90;;;;;;4976373;29;20063;-80
2022/06/13 08:27:19;;;;;;;6.45;3.00;;;23.00;99.90;;;;;;4971925;28;20038;-82
2022/06/13 08:29:45;;;;;;;5.90;3.55;;;22.80;99.90;;;;;;4968344;29;20503;-83
2022/06/13 08:32:11;;;;;;;5.18;2.90;;;22.90;99.90;;;;;;4970209;29;20519;-81
2022/06/13 08:34:37;;;;;;;4.53;2.85;;;22.80;99.90;;;;;;4970558;28;20424;-81
2022/06/13 08:37:03;;;;;;;13.30;2.95;;;22.80;99.90;;;;;;4954062;29;20055;-81
2022/06/13 08:39:29;;;;;;;3.90;2.67;;;23.00;99.90;;;;;;4969583;29;20034;-82
2022/06/13 08:42:01;;;;;;;8.90;2.90;;;23.10;99.90;;;;;;4965351;29;20023;-81
2022/06/13 08:44:49;;;;;;;10.73;3.10;;;23.10;99.90;;;;;;4961413;28;20536;-83
2022/06/13 08:47:53;;;;;;;6.55;2.88;;;23.50;99.90;;;;;;4962364;28;20031;-83
2022/06/13 08:50:31;;;;;;;5.93;3.05;;;23.70;99.90;;;;;;4954067;29;20039;-81
2022/06/13 08:53:03;;;;;;;8.02;3.13;;;23.80;99.90;;;;;;4957744;29;20516;-81
2022/06/13 08:55:48;;;;;;;3.83;2.70;;;23.90;99.90;;;;;;4956619;29;20019;-82
2022/06/13 08:58:36;;;;;;;4.53;2.88;;;23.90;99.90;;;;;;5012887;23;20063;-86
2022/06/13 09:01:12;;;;;;;8.38;3.67;;;23.90;99.90;;;;;;4990625;28;20043;-87
2022/06/13 09:03:45;;;;;;;6.10;3.17;;;23.90;99.90;;;;;;4962753;28;20058;-86
2022/06/13 09:06:16;;;;;;;8.45;3.40;;;24.00;99.90;;;;;;4993871;28;20031;-86
2022/06/13 09:09:06;;;;;;;9.10;3.03;;;24.00;99.90;;;;;;4956534;29;20053;-89
2022/06/13 09:11:57;;;;;;;4.38;3.03;;;23.80;99.90;;;;;;4942390;29;20024;-87
2022/06/13 09:14:41;;;;;;;7.03;3.28;;;23.60;99.90;;;;;;4951686;29;20043;-87
2022/06/13 09:17:32;;;;;;;6.53;3.10;;;24.00;99.90;;;;;;4950164;28;20108;-89
2022/06/13 09:20:14;;;;;;;4.88;2.88;;;24.40;99.90;;;;;;5021329;23;20036;-89
2022/06/13 09:22:48;;;;;;;7.95;3.00;;;24.50;99.90;;;;;;4962020;28;20042;-90
2022/06/13 09:25:27;;;;;;;4.80;3.00;;;24.60;99.90;;;;;;4963114;28;20015;-89
2022/06/13 09:28:03;;;;;;;4.25;2.90;;;24.60;99.90;;;;;;5019861;23;20040;-89
2022/06/13 09:30:36;;;;;;;7.30;3.28;;;24.60;99.90;;;;;;4929986;28;20028;-88
2022/06/13 09:33:11;;;;;;;4.50;3.30;;;24.60;99.90;;;;;;4945761;28;20030;-88
2022/06/13 09:35:48;;;;;;;7.57;2.95;;;24.50;99.90;;;;;;4926529;28;20033;-88
2022/06/13 09:46:37;;;;;;;5.93;2.95;;;24.70;99.90;;;;;;4996925;23;20040;-89
2022/06/13 09:49:24;;;;;;;4.47;2.80;;;25.10;99.90;;;;;;4925053;29;20012;-88
2022/06/13 09:51:50;;;;;;;4.15;2.80;;;25.20;99.90;;;;;;4925154;29;20076;-89
2022/06/13 09:54:41;;;;;;;5.55;2.72;;;25.40;99.90;;;;;;4922838;29;20209;-87
2022/06/13 09:57:33;;;;;;;6.88;2.45;;;25.60;99.90;;;;;;4918728;29;20017;-87
2022/06/13 10:03:12;;;;;;;12.80;2.30;;;26.70;99.40;;;;;;4960470;23;20052;-89
2022/06/13 10:05:45;;;;;;;6.07;1.92;;;27.50;98.20;;;;;;4929112;29;20056;-90
2022/06/13 10:11:31;;;;;;;3.25;2.00;;;28.60;96.90;;;;;;5001398;23;20043;-89
2022/06/13 10:14:16;;;;;;;5.05;1.80;;;29.00;96.30;;;;;;4925479;29;20037;-88
2022/06/13 10:17:00;;;;;;;2.97;2.17;;;30.40;94.50;;;;;;4940113;29;20036;-90
2022/06/13 10:19:48;;;;;;;10.43;5.32;;;30.90;93.30;;;;;;4949644;29;20062;-91
2022/06/13 10:22:16;;;;;;;6.00;1.75;;;31.40;92.10;;;;;;4936095;29;20050;-90
2022/06/13 10:25:03;;;;;;;10.00;2.45;;;31.60;91.50;;;;;;4954919;29;20024;-90
2022/06/13 10:27:43;;;;;;;3.47;1.88;;;32.50;90.40;;;;;;4943202;28;20035;-88
2022/06/13 10:30:12;;;;;;;2.50;1.67;;;32.90;89.30;;;;;;4940299;29;20038;-91
2022/06/13 10:32:56;;;;;;;3.80;1.70;;;32.70;88.70;;;;;;4959178;28;20042;-90
2022/06/13 10:35:31;;;;;;;19.63;2.42;;;32.80;86.30;;;;;;4942627;29;20022;-89
2022/06/13 10:38:16;;;;;;;6.85;1.88;;;33.10;84.40;;;;;;4957560;29;20043;-89
2022/06/13 10:40:42;;;;;;;10.30;2.00;;;33.10;83.50;;;;;;4940230;29;20035;-89
2022/06/13 10:43:08;;;;;;;6.57;1.98;;;33.90;82.30;;;;;;4952645;29;20063;-90
2022/06/13 10:45:38;;;;;;;5.65;2.00;;;34.30;80.80;;;;;;4932729;29;20022;-89
2022/06/13 10:48:10;;;;;;;7.78;1.98;;;35.10;79.50;;;;;;4919919;29;21176;-88
2022/06/13 10:50:45;;;;;;;3.90;1.98;;;35.20;77.40;;;;;;4957385;28;20039;-89
2022/06/13 10:53:30;;;;;;;7.10;2.08;;;35.80;76.30;;;;;;4927931;28;20034;-88
2022/06/13 10:55:58;;;;;;;8.43;1.70;;;36.70;74.20;;;;;;4937335;29;20080;-88
2022/06/13 10:58:42;;;;;;;3.28;1.60;;;36.70;72.40;;;;;;4925385;29;20017;-87
2022/06/13 11:01:16;;;;;;;8.52;2.25;;;36.40;72.00;;;;;;4954994;28;20052;-87
2022/06/13 11:03:58;;;;;;;3.05;1.40;;;36.90;70.50;;;;;;4961468;28;20199;-88
2022/06/13 11:06:48;;;;;;;5.57;1.40;;;36.40;70.20;;;;;;4961270;28;20015;-87
2022/06/13 11:09:27;;;;;;;7.75;1.45;;;36.30;70.00;;;;;;4934575;29;20039;-87
2022/06/13 11:11:59;;;;;;;5.20;2.10;;;36.10;69.90;;;;;;4944339;28;20031;-88
2022/06/13 11:14:33;;;;;;;17.40;1.73;;;37.20;69.40;;;;;;4959996;28;20036;-88
2022/06/13 11:22:40;;;;;;;3.70;1.00;;;40.00;63.50;;;;;;4960423;28;20040;-90
2022/06/13 11:25:29;;;;;;;18.80;1.50;;;39.80;61.60;;;;;;4942758;28;20016;-88
2022/06/13 11:28:15;;;;;;;5.45;1.83;;;38.60;61.10;;;;;;4942983;28;20039;-89
2022/06/13 11:30:46;;;;;;;11.52;1.83;;;36.30;63.90;;;;;;5299930;23;20110;-89
2022/06/13 11:33:40;;;;;;;3.70;1.40;;;35.60;65.10;;;;;;4920830;29;20032;-88
2022/06/13 11:36:12;;;;;;;7.82;1.52;;;36.70;64.20;;;;;;4937287;29;20107;-89
2022/06/13 11:39:05;;;;;;;6.63;1.60;;;37.50;63.10;;;;;;4938428;29;20028;-90
2022/06/13 11:41:45;;;;;;;12.55;1.40;;;37.80;62.50;;;;;;4921489;28;20072;-89
2022/06/13 11:44:17;;;;;;;3.58;1.35;;;38.30;62.00;;;;;;4927210;28;20050;-91
2022/06/13 11:46:42;;;;;;;4.45;1.25;;;37.10;62.60;;;;;;4943742;28;20031;-90
2022/06/13 11:49:17;;;;;;;1.75;1.20;;;36.80;62.80;;;;;;4927511;28;20020;-89
2022/06/13 11:51:53;;;;;;;5.13;1.33;;;37.20;62.30;;;;;;4943882;28;20046;-90
2022/06/13 11:54:29;;;;;;;3.08;1.20;;;38.00;61.00;;;;;;4927440;28;20036;-90
2022/06/13 11:57:14;;;;;;;3.13;1.38;;;37.80;61.20;;;;;;4933778;29;20074;-90
2022/06/13 11:59:49;;;;;;;9.60;1.60;;;36.30;61.90;;;;;;4941424;29;20028;-90
2022/06/13 12:02:39;;;;;;;1.30;1.20;;;35.90;62.50;;;;;;4932317;29;20142;-90
2022/06/13 12:05:19;;;;;;;2.95;1.58;;;35.00;64.00;;;;;;4918071;29;20035;-89
2022/06/13 12:07:54;;;;;;;2.85;1.50;;;35.40;64.20;;;;;;4936371;29;20039;-90
2022/06/13 12:10:25;;;;;;;5.00;1.40;;;35.70;64.50;;;;;;4958340;28;20019;-91
2022/06/13 12:12:53;;;;;;;4.43;1.55;;;36.00;64.20;;;;;;4942863;28;20039;-90
2022/06/13 12:15:20;;;;;;;4.00;1.40;;;34.70;65.40;;;;;;4959802;28;20016;-91
2022/06/13 12:18:19;;;;;;;5.38;1.80;;;34.00;66.00;;;;;;4926486;28;20163;-88
2022/06/13 12:21:06;;;;;;;2.10;1.45;;;33.00;67.70;;;;;;4925313;29;20115;-89
2022/06/13 12:23:55;;;;;;;4.57;1.45;;;32.30;68.90;;;;;;4941339;28;20038;-90
2022/06/13 12:26:36;;;;;;;7.55;1.70;;;31.50;70.40;;;;;;4926840;29;20063;-91
2022/06/13 12:29:34;;;;;;;2.13;1.40;;;30.80;72.10;;;;;;4926574;29;20055;-89
2022/06/13 12:32:24;;;;;;;4.13;1.20;;;31.10;71.90;;;;;;4938255;29;20051;-89
2022/06/13 12:34:56;;;;;;;7.30;1.85;;;31.20;72.00;;;;;;4951694;28;20035;-90
2022/06/13 12:37:35;;;;;;;8.05;1.52;;;31.20;73.30;;;;;;4921529;29;20083;-89
2022/06/13 12:40:18;;;;;;;7.82;1.55;;;32.70;70.80;;;;;;4940509;29;20035;-90
2022/06/13 12:43:41;;;;;;;6.95;1.70;;;32.80;70.40;;;;;;4944802;28;20059;-90
2022/06/13 12:46:24;;;;;;;3.55;1.50;;;33.10;70.40;;;;;;4848843;29;20102;-89
2022/06/13 12:49:18;;;;;;;3.10;1.40;;;32.40;70.00;;;;;;4934899;29;20048;-89
2022/06/13 12:51:58;;;;;;;2.50;1.45;;;31.10;70.80;;;;;;4920651;29;20043;-90
2022/06/13 12:54:43;;;;;;;11.82;1.77;;;30.20;73.00;;;;;;4925649;29;20072;-91
2022/06/13 12:57:19;;;;;;;10.20;1.67;;;29.30;74.40;;;;;;4943814;28;20031;-90
2022/06/13 13:00:22;;;;;;;2.35;1.48;;;28.40;77.00;;;;;;4911598;29;20031;-90
2022/06/13 13:03:35;;;;;;;9.88;2.28;;;28.10;78.20;;;;;;4942459;23;20121;-88
2022/06/13 13:06:33;;;;;;;11.65;1.90;;;27.60;82.00;;;;;;4925365;28;20024;-87
2022/06/13 13:09:15;;;;;;;8.80;2.10;;;27.20;83.60;;;;;;4924862;28;20036;-88
2022/06/13 13:11:52;;;;;;;6.00;2.00;;;26.90;86.00;;;;;;4912662;29;20029;-88
2022/06/13 13:14:30;;;;;;;6.05;2.60;;;26.70;86.70;;;;;;4914296;29;20020;-88
2022/06/13 13:17:27;;;;;;;2.70;1.65;;;27.30;86.10;;;;;;4904569;29;20057;-89
2022/06/13 13:19:56;;;;;;;1.88;1.40;;;29.30;82.00;;;;;;4915606;29;20025;-89
2022/06/13 13:22:42;;;;;;;4.05;1.60;;;31.70;77.40;;;;;;4927019;29;20092;-88
2022/06/13 13:25:24;;;;;;;1.98;1.10;;;33.40;71.20;;;;;;4895992;29;20044;-89
2022/06/13 13:28:16;;;;;;;5.15;1.40;;;34.80;67.10;;;;;;4905023;29;20171;-90
2022/06/13 13:30:48;;;;;;;4.28;1.52;;;35.30;66.20;;;;;;4903332;29;20060;-89
2022/06/13 13:33:27;;;;;;;4.35;1.27;;;35.60;65.80;;;;;;4890005;29;20020;-89
2022/06/13 13:36:04;;;;;;;2.50;1.10;;;36.10;65.90;;;;;;4897446;29;20020;-90
2022/06/13 13:38:42;;;;;;;2.20;1.30;;;35.50;66.40;;;;;;4899475;29;20025;-89
2022/06/13 13:41:29;;;;;;;3.20;1.30;;;36.00;65.80;;;;;;4923043;29;20142;-88
2022/06/13 13:44:16;;;;;;;6.28;1.40;;;37.10;65.10;;;;;;4890233;29;20081;-89
2022/06/13 13:47:10;;;;;;;4.45;1.35;;;36.90;65.10;;;;;;4882416;29;20029;-89
2022/06/13 13:55:16;;;;;;;2.15;1.50;;;35.90;67.10;;;;;;4173162;23;20030;-89
2022/06/13 13:57:58;;;;;;;9.00;1.63;;;35.20;67.30;;;;;;5107528;23;20040;-87
2022/06/13 14:06:07;;;;;;;6.53;2.00;;;34.40;68.20;;;;;;4144807;27;20079;-90
2022/06/13 14:08:38;;;;;;;4.70;1.40;;;33.80;68.10;;;;;;4900315;28;20053;-90
2022/06/13 14:11:09;;;;;;;2.38;1.50;;;33.90;68.40;;;;;;4925837;29;20047;-89